Time;durP1;ratioP1;P1;durP2;ratioP2;P2;SDS_P1;SDS_P2;PMS_P1;PMS_P2;Temp;Humidity;BMP_temperature;BMP_pressure;BME280_temperature;BME280_humidity;BME280_pressure;Samples;Min_cycle;Max_cycle;Signal;HPM_P1;HPM_P2
2023/03/06 00:00:03;;;;;;;28.47;15.37;;;;;;;;;;5077057;28;20717;-65
2023/03/06 00:02:31;;;;;;;27.83;14.40;;;;;;;;;;5076931;28;20210;-65
2023/03/06 00:04:59;;;;;;;28.50;14.37;;;;;;;;;;5077345;28;20202;-65
2023/03/06 00:07:28;;;;;;;27.33;14.80;;;;;;;;;;5076889;28;20238;-65
2023/03/06 00:09:56;;;;;;;24.43;13.87;;;;;;;;;;5078035;28;20316;-64
2023/03/06 00:12:26;;;;;;;27.93;15.07;;;;;;;;;;5080866;28;20207;-65
2023/03/06 00:14:54;;;;;;;27.53;16.17;;;;;;;;;;5081043;28;20228;-65
2023/03/06 00:17:22;;;;;;;24.87;13.47;;;;;;;;;;5080363;28;20372;-65
2023/03/06 00:19:50;;;;;;;30.80;14.40;;;;;;;;;;5080676;28;20222;-65
2023/03/06 00:22:18;;;;;;;24.83;13.80;;;;;;;;;;5080510;28;20210;-63
2023/03/06 00:24:47;;;;;;;25.70;13.77;;;;;;;;;;5080155;28;20214;-65
2023/03/06 00:27:15;;;;;;;22.47;13.83;;;;;;;;;;5080584;28;20236;-65
2023/03/06 00:29:43;;;;;;;25.13;15.03;;;;;;;;;;5080182;28;20232;-65
2023/03/06 00:32:11;;;;;;;25.77;15.10;;;;;;;;;;5080224;28;20209;-65
2023/03/06 00:34:39;;;;;;;25.43;14.60;;;;;;;;;;5080315;28;20207;-64
2023/03/06 00:37:07;;;;;;;33.60;16.37;;;;;;;;;;5080435;28;20222;-65
2023/03/06 00:39:35;;;;;;;29.00;16.20;;;;;;;;;;5079960;28;20219;-65
2023/03/06 00:42:05;;;;;;;31.03;14.30;;;;;;;;;;5080329;28;20216;-65
2023/03/06 00:44:33;;;;;;;28.17;15.37;;;;;;;;;;5080209;28;20210;-65
2023/03/06 00:47:01;;;;;;;32.07;15.40;;;;;;;;;;5080175;28;20209;-65
2023/03/06 00:49:29;;;;;;;31.07;16.80;;;;;;;;;;5079713;28;20221;-65
2023/03/06 00:51:57;;;;;;;30.03;15.27;;;;;;;;;;5080205;28;20210;-65
2023/03/06 00:54:25;;;;;;;26.77;14.93;;;;;;;;;;5079843;28;20285;-65
2023/03/06 00:56:53;;;;;;;30.97;15.60;;;;;;;;;;5079977;28;20246;-65
2023/03/06 00:59:22;;;;;;;31.17;15.83;;;;;;;;;;5079930;28;20494;-65
2023/03/06 01:01:50;;;;;;;31.30;15.70;;;;;;;;;;5079882;28;20213;-65
2023/03/06 01:04:18;;;;;;;26.33;15.30;;;;;;;;;;5079945;28;20214;-65
2023/03/06 01:06:46;;;;;;;30.50;16.13;;;;;;;;;;5079474;28;20206;-66
2023/03/06 01:09:14;;;;;;;26.03;15.00;;;;;;;;;;5079225;28;20257;-65
2023/03/06 01:11:42;;;;;;;33.00;15.60;;;;;;;;;;5079505;28;20270;-65
2023/03/06 01:14:10;;;;;;;25.17;14.57;;;;;;;;;;5079685;28;20202;-65
2023/03/06 01:16:39;;;;;;;28.17;14.93;;;;;;;;;;5079336;28;20278;-65
2023/03/06 01:19:07;;;;;;;26.70;14.43;;;;;;;;;;5079449;28;20233;-65
2023/03/06 01:21:35;;;;;;;22.33;13.07;;;;;;;;;;5078509;28;20293;-65
2023/03/06 01:24:03;;;;;;;26.53;13.23;;;;;;;;;;5079062;28;20225;-65
2023/03/06 01:26:32;;;;;;;21.50;13.00;;;;;;;;;;5079408;28;20211;-65
2023/03/06 01:29:00;;;;;;;28.13;13.83;;;;;;;;;;5079348;28;20241;-66
2023/03/06 01:31:28;;;;;;;24.97;12.47;;;;;;;;;;5079023;28;20214;-65
2023/03/06 01:33:57;;;;;;;23.57;13.03;;;;;;;;;;5079339;28;20206;-65
2023/03/06 01:36:26;;;;;;;23.27;12.53;;;;;;;;;;5078940;28;20276;-65
2023/03/06 01:38:53;;;;;;;26.43;12.93;;;;;;;;;;5078757;28;20229;-65
2023/03/06 01:41:21;;;;;;;24.33;11.17;;;;;;;;;;5078835;28;20688;-65
2023/03/06 01:43:50;;;;;;;24.60;12.63;;;;;;;;;;5078847;28;20940;-65
2023/03/06 01:46:23;;;;;;;17.83;10.67;;;;;;;;;;5078781;28;20645;-65
2023/03/06 01:48:53;;;;;;;22.30;11.00;;;;;;;;;;5078624;28;20198;-65
2023/03/06 01:51:24;;;;;;;22.63;10.57;;;;;;;;;;5079054;28;20212;-65
2023/03/06 01:53:53;;;;;;;19.40;10.80;;;;;;;;;;5078823;28;20285;-65
2023/03/06 01:56:21;;;;;;;14.97;9.77;;;;;;;;;;5078972;28;20206;-65
2023/03/06 01:58:50;;;;;;;19.00;9.83;;;;;;;;;;5078500;28;20512;-65
2023/03/06 02:01:19;;;;;;;17.87;9.27;;;;;;;;;;5078648;28;20464;-65
2023/03/06 02:03:48;;;;;;;15.17;8.60;;;;;;;;;;5078756;28;20528;-64
2023/03/06 02:06:20;;;;;;;16.90;9.77;;;;;;;;;;5078035;28;20470;-65
2023/03/06 02:08:51;;;;;;;16.20;9.80;;;;;;;;;;5078903;28;20237;-64
2023/03/06 02:11:20;;;;;;;17.90;9.67;;;;;;;;;;5082567;28;20436;-65
2023/03/06 02:13:49;;;;;;;17.97;9.60;;;;;;;;;;5077563;28;20261;-64
2023/03/06 02:16:17;;;;;;;19.10;10.00;;;;;;;;;;5078150;28;20433;-65
2023/03/06 02:18:46;;;;;;;20.17;9.43;;;;;;;;;;5078791;28;20218;-65
2023/03/06 02:21:19;;;;;;;17.33;10.20;;;;;;;;;;5076845;28;20266;-65
2023/03/06 02:23:51;;;;;;;16.50;9.63;;;;;;;;;;5079355;28;20234;-65
2023/03/06 02:26:23;;;;;;;17.30;9.40;;;;;;;;;;5074203;28;20202;-65
2023/03/06 02:28:51;;;;;;;17.43;9.43;;;;;;;;;;5077606;28;20285;-65
2023/03/06 02:31:21;;;;;;;17.50;10.27;;;;;;;;;;5074203;28;20660;-65
2023/03/06 02:34:00;;;;;;;17.40;9.33;;;;;;;;;;5078059;28;20198;-65
2023/03/06 02:36:29;;;;;;;18.90;9.33;;;;;;;;;;5075374;28;20205;-65
2023/03/06 02:38:58;;;;;;;19.60;9.80;;;;;;;;;;5077362;28;20253;-65
2023/03/06 02:41:31;;;;;;;16.67;9.67;;;;;;;;;;5078716;28;20229;-65
2023/03/06 02:43:59;;;;;;;20.13;9.80;;;;;;;;;;5076048;28;20908;-65
2023/03/06 02:46:27;;;;;;;21.27;9.73;;;;;;;;;;5079546;28;20440;-65
2023/03/06 02:48:55;;;;;;;16.33;9.13;;;;;;;;;;5077214;28;20437;-65
2023/03/06 02:51:23;;;;;;;15.83;8.57;;;;;;;;;;5077625;28;20464;-64
2023/03/06 02:53:51;;;;;;;15.53;8.97;;;;;;;;;;5076614;28;20444;-64
2023/03/06 02:56:19;;;;;;;19.50;9.27;;;;;;;;;;5077567;28;20444;-64
2023/03/06 02:58:49;;;;;;;14.17;8.20;;;;;;;;;;5076854;28;20484;-64
2023/03/06 03:01:17;;;;;;;14.60;9.50;;;;;;;;;;5076943;28;20883;-64
2023/03/06 03:03:45;;;;;;;18.20;9.00;;;;;;;;;;5076428;28;20441;-64
2023/03/06 03:06:13;;;;;;;15.23;9.33;;;;;;;;;;5077147;28;20436;-64
2023/03/06 03:08:43;;;;;;;20.27;9.70;;;;;;;;;;5073709;28;20539;-64
2023/03/06 03:11:11;;;;;;;16.93;8.50;;;;;;;;;;5077612;28;20549;-65
2023/03/06 03:13:39;;;;;;;17.73;9.23;;;;;;;;;;5075389;28;20466;-65
2023/03/06 03:16:09;;;;;;;17.10;9.23;;;;;;;;;;5079893;28;20879;-65
2023/03/06 03:18:38;;;;;;;13.13;8.23;;;;;;;;;;5078473;28;20848;-65
2023/03/06 03:21:07;;;;;;;16.33;9.63;;;;;;;;;;5076703;28;20455;-64
2023/03/06 03:23:35;;;;;;;14.87;9.13;;;;;;;;;;5077263;28;20446;-64
2023/03/06 03:26:06;;;;;;;18.30;9.10;;;;;;;;;;5076163;28;20437;-64
2023/03/06 03:28:34;;;;;;;17.63;9.83;;;;;;;;;;5078733;28;20528;-64
2023/03/06 03:31:03;;;;;;;14.60;8.97;;;;;;;;;;5077011;28;20488;-65
2023/03/06 03:33:33;;;;;;;18.17;9.60;;;;;;;;;;5077373;28;20991;-64
2023/03/06 03:36:01;;;;;;;26.60;18.20;;;;;;;;;;5077619;28;20432;-64
2023/03/06 03:38:30;;;;;;;19.70;10.57;;;;;;;;;;5076884;28;20444;-64
2023/03/06 03:40:58;;;;;;;17.00;8.67;;;;;;;;;;5076720;28;20543;-64
2023/03/06 03:43:26;;;;;;;16.80;9.07;;;;;;;;;;5063921;28;20455;-64
2023/03/06 03:45:54;;;;;;;14.57;8.60;;;;;;;;;;5079851;28;20523;-64
2023/03/06 03:48:22;;;;;;;13.93;8.70;;;;;;;;;;5080936;28;20947;-64
2023/03/06 03:50:51;;;;;;;14.53;8.67;;;;;;;;;;5080949;28;20464;-64
2023/03/06 03:53:19;;;;;;;15.97;9.53;;;;;;;;;;5080889;28;20440;-64
2023/03/06 03:55:47;;;;;;;17.60;9.50;;;;;;;;;;5077403;28;20886;-64
2023/03/06 03:58:15;;;;;;;18.90;9.67;;;;;;;;;;5080733;28;20855;-64
2023/03/06 04:00:43;;;;;;;16.43;8.67;;;;;;;;;;5080498;28;20492;-63
2023/03/06 04:03:11;;;;;;;16.67;8.80;;;;;;;;;;5080851;28;20436;-63
2023/03/06 04:05:39;;;;;;;19.77;8.80;;;;;;;;;;5080542;28;20445;-64
2023/03/06 04:08:09;;;;;;;11.47;8.33;;;;;;;;;;5080240;28;20491;-64
2023/03/06 04:10:38;;;;;;;14.63;9.10;;;;;;;;;;5080283;28;20492;-63
2023/03/06 04:13:06;;;;;;;14.90;8.63;;;;;;;;;;5080432;28;20517;-64
2023/03/06 04:15:36;;;;;;;19.47;9.93;;;;;;;;;;5080380;28;20886;-63
2023/03/06 04:18:04;;;;;;;19.77;10.50;;;;;;;;;;5080821;28;20432;-63
2023/03/06 04:20:32;;;;;;;22.57;11.67;;;;;;;;;;5080385;28;20533;-62
2023/03/06 04:23:00;;;;;;;22.20;12.30;;;;;;;;;;5079944;28;20501;-63
2023/03/06 04:25:30;;;;;;;20.47;11.20;;;;;;;;;;5080587;28;20477;-63
2023/03/06 04:27:59;;;;;;;20.03;9.87;;;;;;;;;;5080298;28;20954;-63
2023/03/06 04:30:27;;;;;;;18.17;11.27;;;;;;;;;;5080341;28;20950;-63
2023/03/06 04:32:55;;;;;;;20.93;11.23;;;;;;;;;;5080362;28;20444;-63
2023/03/06 04:35:23;;;;;;;19.23;11.97;;;;;;;;;;5080184;28;20445;-63
2023/03/06 04:37:51;;;;;;;25.57;13.53;;;;;;;;;;5079947;28;20881;-63
2023/03/06 04:40:20;;;;;;;28.13;13.23;;;;;;;;;;5080130;28;20483;-63
2023/03/06 04:42:50;;;;;;;27.03;14.47;;;;;;;;;;5080237;28;20447;-63
2023/03/06 04:45:17;;;;;;;24.37;13.57;;;;;;;;;;5080311;28;20455;-63
2023/03/06 04:47:45;;;;;;;23.63;13.10;;;;;;;;;;5080068;28;20440;-63
2023/03/06 04:50:13;;;;;;;33.10;14.90;;;;;;;;;;5080148;28;20547;-63
2023/03/06 04:52:41;;;;;;;26.17;15.30;;;;;;;;;;5079608;28;20502;-63
2023/03/06 04:55:10;;;;;;;29.13;13.43;;;;;;;;;;5079752;28;20472;-63
2023/03/06 04:57:39;;;;;;;27.53;14.63;;;;;;;;;;5080006;28;20532;-63
2023/03/06 05:00:09;;;;;;;24.17;13.57;;;;;;;;;;5079763;28;20531;-63
2023/03/06 05:02:37;;;;;;;32.43;14.53;;;;;;;;;;5079947;28;20444;-63
2023/03/06 05:05:06;;;;;;;25.90;13.67;;;;;;;;;;5079939;28;20453;-63
2023/03/06 05:07:34;;;;;;;27.93;14.37;;;;;;;;;;5079708;28;20477;-63
2023/03/06 05:10:02;;;;;;;30.00;15.47;;;;;;;;;;5079678;28;20551;-63
2023/03/06 05:12:29;;;;;;;31.83;15.43;;;;;;;;;;5079743;28;20451;-63
2023/03/06 05:14:57;;;;;;;34.33;15.93;;;;;;;;;;5079712;28;20448;-62
2023/03/06 05:17:27;;;;;;;31.77;15.33;;;;;;;;;;5079344;28;20476;-63
2023/03/06 05:19:55;;;;;;;26.33;14.03;;;;;;;;;;5079210;28;20519;-63
2023/03/06 05:22:23;;;;;;;28.93;14.13;;;;;;;;;;5079422;28;20444;-63
2023/03/06 05:24:51;;;;;;;27.13;14.13;;;;;;;;;;5079214;28;20827;-62
2023/03/06 05:27:19;;;;;;;33.90;15.10;;;;;;;;;;5079202;28;20451;-63
2023/03/06 05:29:47;;;;;;;28.47;14.83;;;;;;;;;;5079264;28;20551;-63
2023/03/06 05:32:15;;;;;;;26.67;14.50;;;;;;;;;;5078985;28;20440;-63
2023/03/06 05:34:45;;;;;;;23.70;13.63;;;;;;;;;;5078948;28;20467;-63
2023/03/06 05:37:13;;;;;;;28.63;15.70;;;;;;;;;;5078825;28;20444;-63
2023/03/06 05:39:41;;;;;;;27.30;14.87;;;;;;;;;;5078884;28;20460;-62
2023/03/06 05:42:09;;;;;;;24.23;13.53;;;;;;;;;;5079144;28;20441;-63
2023/03/06 05:44:37;;;;;;;30.33;15.23;;;;;;;;;;5078821;28;20499;-63
2023/03/06 05:47:05;;;;;;;26.70;14.37;;;;;;;;;;5078739;28;20445;-63
2023/03/06 05:49:33;;;;;;;26.93;14.67;;;;;;;;;;5078554;28;20831;-63
2023/03/06 05:52:04;;;;;;;26.20;13.60;;;;;;;;;;5078782;28;20448;-64
2023/03/06 05:54:32;;;;;;;27.73;13.93;;;;;;;;;;5078938;28;20451;-64
2023/03/06 05:57:00;;;;;;;29.77;14.50;;;;;;;;;;5078531;28;20494;-64
2023/03/06 05:59:28;;;;;;;27.73;13.70;;;;;;;;;;5078673;28;20475;-65
2023/03/06 06:01:57;;;;;;;28.13;13.83;;;;;;;;;;5076097;28;20484;-65
2023/03/06 06:04:26;;;;;;;30.63;14.17;;;;;;;;;;5078680;28;20449;-65
2023/03/06 06:06:54;;;;;;;26.73;13.47;;;;;;;;;;5078553;28;20456;-65
2023/03/06 06:09:23;;;;;;;25.20;11.80;;;;;;;;;;5077373;28;20480;-66
2023/03/06 06:11:52;;;;;;;22.23;12.50;;;;;;;;;;5077339;28;20468;-64
2023/03/06 06:14:20;;;;;;;22.60;11.10;;;;;;;;;;5076052;28;20443;-64
2023/03/06 06:16:48;;;;;;;24.13;12.70;;;;;;;;;;5078465;28;20854;-63
2023/03/06 06:19:19;;;;;;;18.63;11.00;;;;;;;;;;5078681;28;20464;-63
2023/03/06 06:21:47;;;;;;;25.73;13.13;;;;;;;;;;5078173;28;20482;-64
2023/03/06 06:24:16;;;;;;;22.87;12.67;;;;;;;;;;5078201;28;20440;-63
2023/03/06 06:26:45;;;;;;;20.50;12.30;;;;;;;;;;5078079;28;20852;-63
2023/03/06 06:29:13;;;;;;;27.47;12.83;;;;;;;;;;5078063;28;20547;-63
2023/03/06 06:31:41;;;;;;;23.20;12.70;;;;;;;;;;5078128;28;20444;-63
2023/03/06 06:34:10;;;;;;;25.60;13.10;;;;;;;;;;5076881;28;20786;-65
2023/03/06 06:36:39;;;;;;;23.33;13.97;;;;;;;;;;5075511;28;20480;-64
2023/03/06 06:39:07;;;;;;;21.60;12.83;;;;;;;;;;5073839;28;20436;-64
2023/03/06 06:41:36;;;;;;;27.30;14.17;;;;;;;;;;5077958;28;20511;-64
2023/03/06 06:44:25;;;;;;;26.53;13.87;;;;;;;;;;5080665;28;21002;-65
2023/03/06 06:46:53;;;;;;;31.70;14.03;;;;;;;;;;5098157;28;20490;-65
2023/03/06 06:49:41;;;;;;;30.87;14.27;;;;;;;;;;5098124;28;20470;-65
2023/03/06 06:52:10;;;;;;;27.73;14.83;;;;;;;;;;5097836;28;20436;-65
2023/03/06 06:54:38;;;;;;;40.73;20.53;;;;;;;;;;5098137;28;20497;-64
2023/03/06 06:57:06;;;;;;;32.03;15.47;;;;;;;;;;5098044;28;20467;-65
2023/03/06 06:59:35;;;;;;;28.33;13.37;;;;;;;;;;5097649;28;20463;-65
2023/03/06 07:02:04;;;;;;;31.63;13.80;;;;;;;;;;5097533;28;20567;-65
2023/03/06 07:04:32;;;;;;;30.40;13.87;;;;;;;;;;5098054;28;20443;-65
2023/03/06 07:07:01;;;;;;;25.77;14.20;;;;;;;;;;5080174;28;20978;-65
2023/03/06 07:09:30;;;;;;;27.63;14.53;;;;;;;;;;5077775;28;20465;-65
2023/03/06 07:12:00;;;;;;;30.37;14.23;;;;;;;;;;5077695;28;20436;-65
2023/03/06 07:14:28;;;;;;;29.57;13.13;;;;;;;;;;5077624;28;20998;-65
2023/03/06 07:16:57;;;;;;;24.73;13.07;;;;;;;;;;5077440;28;20511;-65
2023/03/06 07:19:28;;;;;;;22.40;11.63;;;;;;;;;;5078267;28;20461;-65
2023/03/06 07:21:56;;;;;;;24.23;13.57;;;;;;;;;;5081653;28;20511;-65
2023/03/06 07:24:24;;;;;;;23.20;13.03;;;;;;;;;;5081733;28;20469;-65
2023/03/06 07:26:52;;;;;;;24.10;13.00;;;;;;;;;;5081691;28;20448;-65
2023/03/06 07:29:20;;;;;;;29.87;14.10;;;;;;;;;;5081075;28;21055;-65
2023/03/06 07:31:48;;;;;;;20.43;13.37;;;;;;;;;;5081458;28;20448;-65
2023/03/06 07:34:17;;;;;;;32.20;14.83;;;;;;;;;;5081319;28;20632;-65
2023/03/06 07:36:45;;;;;;;31.23;12.97;;;;;;;;;;5081272;28;20206;-64
2023/03/06 07:39:13;;;;;;;24.07;12.10;;;;;;;;;;5080795;28;20226;-65
2023/03/06 07:41:41;;;;;;;24.60;12.87;;;;;;;;;;5081043;28;20316;-65
2023/03/06 07:44:09;;;;;;;25.03;11.50;;;;;;;;;;5081212;28;20691;-65
2023/03/06 07:46:37;;;;;;;18.87;11.57;;;;;;;;;;5081303;28;20213;-65
2023/03/06 07:49:05;;;;;;;22.23;12.03;;;;;;;;;;5081170;28;20222;-65
2023/03/06 07:51:34;;;;;;;24.60;12.00;;;;;;;;;;5081217;28;20206;-65
2023/03/06 07:54:02;;;;;;;25.07;12.53;;;;;;;;;;5080901;28;20206;-65
2023/03/06 07:56:30;;;;;;;21.73;10.47;;;;;;;;;;5081097;28;20206;-65
2023/03/06 07:58:58;;;;;;;21.50;11.33;;;;;;;;;;5080057;28;20654;-65
2023/03/06 08:01:26;;;;;;;21.10;11.27;;;;;;;;;;5080484;28;20214;-64
2023/03/06 08:03:54;;;;;;;20.90;11.97;;;;;;;;;;5080916;28;20202;-64
2023/03/06 08:06:24;;;;;;;22.93;12.57;;;;;;;;;;5080240;28;20709;-64
2023/03/06 08:08:54;;;;;;;25.73;11.80;;;;;;;;;;5082180;28;20300;-64
2023/03/06 08:11:23;;;;;;;20.83;11.47;;;;;;;;;;5080930;28;20195;-64
2023/03/06 08:13:52;;;;;;;20.40;11.33;;;;;;;;;;5080510;28;20566;-65
2023/03/06 08:16:20;;;;;;;23.73;11.83;;;;;;;;;;5081230;28;20194;-65
2023/03/06 08:18:49;;;;;;;22.17;12.30;;;;;;;;;;5082185;28;20202;-63
2023/03/06 08:21:18;;;;;;;23.33;12.23;;;;;;;;;;5079933;28;20226;-65
2023/03/06 08:23:46;;;;;;;22.27;11.97;;;;;;;;;;5079546;28;20654;-65
2023/03/06 08:26:17;;;;;;;25.37;12.30;;;;;;;;;;5080656;28;20194;-65
2023/03/06 08:28:45;;;;;;;19.67;11.70;;;;;;;;;;5081638;28;20252;-64
2023/03/06 08:31:13;;;;;;;22.63;12.17;;;;;;;;;;5081355;28;20218;-64
2023/03/06 08:33:42;;;;;;;21.03;12.40;;;;;;;;;;5079704;28;20232;-64
2023/03/06 08:36:09;;;;;;;22.63;11.93;;;;;;;;;;5083080;28;20208;-64
2023/03/06 08:38:37;;;;;;;21.30;12.50;;;;;;;;;;5078312;28;20237;-63
2023/03/06 08:41:05;;;;;;;23.60;11.87;;;;;;;;;;5081119;28;20588;-63
2023/03/06 08:43:35;;;;;;;19.93;10.40;;;;;;;;;;5079696;28;20202;-65
2023/03/06 08:46:03;;;;;;;22.40;10.80;;;;;;;;;;5082295;28;20285;-64
2023/03/06 08:48:31;;;;;;;24.27;11.83;;;;;;;;;;5079466;28;20692;-63
2023/03/06 08:51:00;;;;;;;23.47;11.57;;;;;;;;;;5080426;28;20222;-64
2023/03/06 08:53:28;;;;;;;19.33;10.77;;;;;;;;;;5081137;28;20198;-64
2023/03/06 08:56:14;;;;;;;23.43;11.50;;;;;;;;;;5082473;28;20284;-63
2023/03/06 08:58:44;;;;;;;17.83;12.00;;;;;;;;;;5078122;28;20209;-62
2023/03/06 09:01:15;;;;;;;20.20;11.67;;;;;;;;;;5080241;28;20228;-62
2023/03/06 09:03:43;;;;;;;21.37;11.50;;;;;;;;;;5081142;28;20225;-61
2023/03/06 09:06:11;;;;;;;18.80;11.87;;;;;;;;;;5079965;28;20202;-62
2023/03/06 09:08:41;;;;;;;18.10;10.73;;;;;;;;;;5079120;28;20238;-62
2023/03/06 09:11:10;;;;;;;21.13;12.07;;;;;;;;;;5080043;28;20261;-62
2023/03/06 09:13:38;;;;;;;20.10;11.27;;;;;;;;;;5079489;28;20198;-62
2023/03/06 09:16:08;;;;;;;26.33;11.13;;;;;;;;;;5079317;28;20268;-61
2023/03/06 09:18:37;;;;;;;22.07;11.70;;;;;;;;;;5079586;28;20206;-62
2023/03/06 09:21:05;;;;;;;67.93;39.43;;;;;;;;;;5079646;28;20316;-61
2023/03/06 09:23:33;;;;;;;24.30;11.70;;;;;;;;;;5078995;28;20675;-60
2023/03/06 09:26:01;;;;;;;17.73;10.27;;;;;;;;;;5079419;28;20289;-60
2023/03/06 09:28:34;;;;;;;20.97;10.73;;;;;;;;;;5079465;28;20203;-62
2023/03/06 09:31:08;;;;;;;19.33;10.33;;;;;;;;;;5079731;28;20248;-64
2023/03/06 09:33:36;;;;;;;19.80;11.03;;;;;;;;;;5076436;28;20209;-63
2023/03/06 09:36:08;;;;;;;17.17;9.73;;;;;;;;;;5082100;28;20277;-61
2023/03/06 09:38:36;;;;;;;20.70;11.37;;;;;;;;;;5076836;28;20572;-63
2023/03/06 09:41:06;;;;;;;20.33;10.20;;;;;;;;;;5080160;28;20288;-62
2023/03/06 09:43:35;;;;;;;16.53;9.50;;;;;;;;;;5076961;28;20226;-62
2023/03/06 09:46:13;;;;;;;19.83;10.53;;;;;;;;;;5078300;28;20228;-60
2023/03/06 09:48:45;;;;;;;19.30;10.93;;;;;;;;;;5076894;28;20218;-61
2023/03/06 09:51:15;;;;;;;25.33;12.20;;;;;;;;;;5078415;28;20222;-61
2023/03/06 09:53:55;;;;;;;19.87;11.17;;;;;;;;;;5079261;28;20652;-61
2023/03/06 09:56:29;;;;;;;15.67;9.00;;;;;;;;;;5077153;28;20276;-61
2023/03/06 09:59:01;;;;;;;24.40;11.60;;;;;;;;;;5078859;28;20235;-62
2023/03/06 10:01:31;;;;;;;20.20;10.87;;;;;;;;;;5078682;28;20212;-61
2023/03/06 10:04:05;;;;;;;20.93;11.40;;;;;;;;;;5078457;28;20716;-63
2023/03/06 10:06:34;;;;;;;18.97;10.10;;;;;;;;;;5078724;28;20206;-63
2023/03/06 10:09:04;;;;;;;21.53;11.67;;;;;;;;;;5077778;28;20723;-62
2023/03/06 10:11:35;;;;;;;21.13;10.57;;;;;;;;;;5076417;28;20228;-61
2023/03/06 10:14:18;;;;;;;18.93;10.60;;;;;;;;;;5079445;28;20200;-62
2023/03/06 10:16:47;;;;;;;15.40;9.43;;;;;;;;;;5077582;28;21623;-62
2023/03/06 10:19:16;;;;;;;17.17;10.37;;;;;;;;;;5077073;28;20309;-64
2023/03/06 10:21:47;;;;;;;25.27;10.67;;;;;;;;;;5080159;28;20205;-62
2023/03/06 10:24:21;;;;;;;13.33;9.03;;;;;;;;;;5078418;28;20304;-61
2023/03/06 10:26:52;;;;;;;23.17;10.07;;;;;;;;;;5077681;28;20198;-61
2023/03/06 10:29:26;;;;;;;22.17;10.13;;;;;;;;;;5078035;28;20631;-62
2023/03/06 10:31:58;;;;;;;19.17;9.77;;;;;;;;;;5075520;28;20209;-62
2023/03/06 10:34:29;;;;;;;18.00;10.47;;;;;;;;;;5079409;28;20207;-61
2023/03/06 10:36:58;;;;;;;18.50;10.03;;;;;;;;;;5080136;28;20194;-62
2023/03/06 10:39:27;;;;;;;17.50;10.13;;;;;;;;;;5072293;28;20229;-64
2023/03/06 10:41:55;;;;;;;19.23;10.50;;;;;;;;;;5071486;28;20230;-64
2023/03/06 10:44:23;;;;;;;19.77;10.63;;;;;;;;;;5077560;28;20268;-63
2023/03/06 10:46:53;;;;;;;18.07;9.37;;;;;;;;;;5077209;28;20240;-65
2023/03/06 10:49:27;;;;;;;18.27;10.30;;;;;;;;;;5077470;28;20264;-64
2023/03/06 10:51:59;;;;;;;18.30;10.50;;;;;;;;;;5076052;28;20202;-63
2023/03/06 10:54:27;;;;;;;20.93;10.30;;;;;;;;;;5077052;28;20285;-62
2023/03/06 10:56:57;;;;;;;25.43;11.10;;;;;;;;;;5077223;28;20685;-63
2023/03/06 10:59:27;;;;;;;17.93;10.90;;;;;;;;;;5077049;28;20233;-63
2023/03/06 11:01:55;;;;;;;24.07;10.30;;;;;;;;;;5077090;28;20259;-63
2023/03/06 11:04:26;;;;;;;21.60;10.90;;;;;;;;;;5077277;28;20230;-63
2023/03/06 11:07:08;;;;;;;18.23;10.30;;;;;;;;;;5077115;28;20199;-61
2023/03/06 11:09:36;;;;;;;21.97;11.20;;;;;;;;;;5069832;28;20270;-62
2023/03/06 11:12:19;;;;;;;16.97;9.77;;;;;;;;;;5077186;28;20206;-62
2023/03/06 11:14:47;;;;;;;23.40;10.70;;;;;;;;;;5077178;28;20244;-62
2023/03/06 11:17:26;;;;;;;21.80;10.57;;;;;;;;;;5077143;28;20264;-61
2023/03/06 11:20:09;;;;;;;23.20;10.63;;;;;;;;;;5077485;28;20225;-62
2023/03/06 11:22:39;;;;;;;24.23;10.10;;;;;;;;;;5077010;28;20213;-63
2023/03/06 11:25:10;;;;;;;21.50;11.73;;;;;;;;;;5075067;28;20228;-63
2023/03/06 11:27:41;;;;;;;22.67;11.67;;;;;;;;;;5077557;28;20228;-63
2023/03/06 11:30:16;;;;;;;20.53;11.17;;;;;;;;;;5077037;28;20688;-63
2023/03/06 11:32:45;;;;;;;22.23;10.87;;;;;;;;;;5076613;28;20201;-63
2023/03/06 11:35:16;;;;;;;24.27;10.77;;;;;;;;;;5076578;28;20213;-62
2023/03/06 11:37:50;;;;;;;19.80;10.63;;;;;;;;;;5077172;28;20213;-63
2023/03/06 11:40:20;;;;;;;20.13;10.87;;;;;;;;;;5077076;28;20281;-62
2023/03/06 11:42:51;;;;;;;22.70;11.03;;;;;;;;;;5068509;28;20321;-62
2023/03/06 11:45:23;;;;;;;17.87;11.00;;;;;;;;;;5076955;28;20572;-63
2023/03/06 11:47:54;;;;;;;18.77;10.83;;;;;;;;;;5077123;28;20251;-63
2023/03/06 11:50:24;;;;;;;21.27;10.33;;;;;;;;;;5077133;28;20232;-63
2023/03/06 11:52:57;;;;;;;19.93;10.97;;;;;;;;;;5076789;28;20206;-63
2023/03/06 11:55:30;;;;;;;18.83;11.30;;;;;;;;;;5076796;28;20206;-61
2023/03/06 11:58:04;;;;;;;18.17;10.70;;;;;;;;;;5077265;28;20244;-62
2023/03/06 12:00:42;;;;;;;19.87;10.67;;;;;;;;;;5074900;28;20701;-62
2023/03/06 12:03:19;;;;;;;23.10;10.80;;;;;;;;;;5076770;28;20280;-62
2023/03/06 12:05:49;;;;;;;20.67;11.00;;;;;;;;;;5077651;28;20289;-63
2023/03/06 12:08:27;;;;;;;23.03;11.17;;;;;;;;;;5080066;28;20637;-63
2023/03/06 12:10:59;;;;;;;17.63;10.43;;;;;;;;;;5091329;28;20276;-61
2023/03/06 12:13:50;;;;;;;19.73;9.93;;;;;;;;;;5100831;28;20258;-62
2023/03/06 12:16:24;;;;;;;23.03;10.33;;;;;;;;;;5082581;28;20217;-64
2023/03/06 12:18:55;;;;;;;20.60;11.03;;;;;;;;;;5080379;28;20214;-62
2023/03/06 12:21:27;;;;;;;21.57;10.70;;;;;;;;;;5072636;28;20284;-61
2023/03/06 12:24:15;;;;;;;19.47;11.37;;;;;;;;;;5073056;28;20709;-62
2023/03/06 12:26:50;;;;;;;16.67;10.30;;;;;;;;;;5074799;28;20256;-62
2023/03/06 12:29:28;;;;;;;20.20;10.27;;;;;;;;;;5094814;28;20232;-62
2023/03/06 12:32:00;;;;;;;20.60;10.20;;;;;;;;;;5100232;28;20209;-60
2023/03/06 12:34:46;;;;;;;15.63;10.33;;;;;;;;;;5080507;28;20191;-60
2023/03/06 12:37:18;;;;;;;18.43;9.60;;;;;;;;;;5079720;28;20233;-62
2023/03/06 12:39:53;;;;;;;17.03;9.87;;;;;;;;;;5080167;28;20226;-62
2023/03/06 12:42:30;;;;;;;16.17;9.67;;;;;;;;;;5079878;28;20213;-62
2023/03/06 12:45:06;;;;;;;21.60;11.03;;;;;;;;;;5080058;28;20229;-63
2023/03/06 12:47:39;;;;;;;16.13;9.60;;;;;;;;;;5079748;28;20782;-62
2023/03/06 12:50:13;;;;;;;17.67;10.13;;;;;;;;;;5060677;28;20233;-62
2023/03/06 12:52:41;;;;;;;27.40;11.80;;;;;;;;;;5074853;28;20233;-62
2023/03/06 12:55:14;;;;;;;22.00;10.33;;;;;;;;;;5079707;28;20244;-63
2023/03/06 12:57:43;;;;;;;21.17;10.93;;;;;;;;;;5079804;28;20210;-62
2023/03/06 13:00:32;;;;;;;17.67;10.40;;;;;;;;;;5079405;28;20257;-63
2023/03/06 13:03:06;;;;;;;17.20;10.20;;;;;;;;;;5079219;28;20573;-62
2023/03/06 13:05:42;;;;;;;17.07;9.90;;;;;;;;;;5079608;28;20219;-61
2023/03/06 13:08:22;;;;;;;19.33;9.63;;;;;;;;;;5076053;28;20230;-62
2023/03/06 13:11:03;;;;;;;19.73;9.90;;;;;;;;;;5079113;28;20237;-63
2023/03/06 13:13:34;;;;;;;15.33;8.80;;;;;;;;;;5079178;28;20239;-63
2023/03/06 13:16:09;;;;;;;17.90;10.13;;;;;;;;;;5079260;28;20206;-63
2023/03/06 13:18:55;;;;;;;13.63;8.60;;;;;;;;;;5079332;28;20212;-63
2023/03/06 13:21:41;;;;;;;17.30;10.23;;;;;;;;;;5079040;28;20205;-63
2023/03/06 13:24:14;;;;;;;15.47;8.53;;;;;;;;;;5077606;28;20245;-63
2023/03/06 13:26:50;;;;;;;14.43;8.63;;;;;;;;;;5079387;28;20216;-63
2023/03/06 13:29:37;;;;;;;21.57;9.43;;;;;;;;;;5087861;28;20789;-63
2023/03/06 13:32:14;;;;;;;14.80;8.00;;;;;;;;;;5088602;28;20206;-63
2023/03/06 13:34:45;;;;;;;15.87;8.67;;;;;;;;;;5079008;28;20194;-63
2023/03/06 13:37:32;;;;;;;15.33;8.33;;;;;;;;;;5079215;28;20202;-63
2023/03/06 13:40:18;;;;;;;14.27;8.60;;;;;;;;;;5078424;28;20228;-63
2023/03/06 13:43:05;;;;;;;14.80;8.40;;;;;;;;;;5076253;28;20202;-63
2023/03/06 13:45:34;;;;;;;14.57;8.50;;;;;;;;;;5078465;28;20261;-63
2023/03/06 13:48:04;;;;;;;14.93;7.73;;;;;;;;;;5078341;28;20214;-63
2023/03/06 13:50:54;;;;;;;11.27;7.73;;;;;;;;;;5078299;28;20234;-62
2023/03/06 13:53:37;;;;;;;18.50;8.50;;;;;;;;;;5078298;28;20206;-62
2023/03/06 13:56:10;;;;;;;17.83;8.97;;;;;;;;;;5078360;28;20645;-63
2023/03/06 13:58:44;;;;;;;16.23;8.30;;;;;;;;;;5077178;28;20210;-62
2023/03/06 14:01:18;;;;;;;15.70;8.30;;;;;;;;;;5077557;28;20245;-63
2023/03/06 14:03:57;;;;;;;18.63;9.20;;;;;;;;;;5080020;28;20225;-62
2023/03/06 14:06:41;;;;;;;15.47;9.57;;;;;;;;;;5079310;28;20198;-62
2023/03/06 14:09:15;;;;;;;19.77;9.83;;;;;;;;;;5077237;28;20229;-63
2023/03/06 14:11:47;;;;;;;15.97;9.43;;;;;;;;;;5077974;28;20683;-62
2023/03/06 14:14:17;;;;;;;20.33;10.20;;;;;;;;;;5077790;28;20269;-62
2023/03/06 14:16:49;;;;;;;15.67;9.60;;;;;;;;;;5078236;28;20210;-62
2023/03/06 14:19:19;;;;;;;14.40;8.47;;;;;;;;;;5078221;28;20257;-62
2023/03/06 14:21:49;;;;;;;16.07;7.70;;;;;;;;;;5070858;28;20692;-62
2023/03/06 14:24:18;;;;;;;14.90;7.90;;;;;;;;;;5077960;28;20206;-62
2023/03/06 14:26:48;;;;;;;14.70;7.50;;;;;;;;;;5077838;28;20206;-62
2023/03/06 14:29:20;;;;;;;14.77;8.10;;;;;;;;;;5078875;28;20220;-62
2023/03/06 14:31:49;;;;;;;14.30;8.40;;;;;;;;;;5078530;28;20210;-62
2023/03/06 14:34:21;;;;;;;19.63;9.20;;;;;;;;;;5077705;28;20661;-62
2023/03/06 14:36:49;;;;;;;16.83;9.00;;;;;;;;;;5076341;28;20277;-62
2023/03/06 14:39:20;;;;;;;15.13;10.00;;;;;;;;;;5076974;28;20218;-61